Time;durP1;ratioP1;P1;durP2;ratioP2;P2;SDS_P1;SDS_P2;PMS_P1;PMS_P2;Temp;Humidity;BMP_temperature;BMP_pressure;BME280_temperature;BME280_humidity;BME280_pressure;Samples;Min_cycle;Max_cycle;Signal;HPM_P1;HPM_P2
2023/11/17 00:00:08;;;;;;;34.35;32.35;;;;;;;4.13;100.00;101349.66;5032101;28;20080;-74
2023/11/17 00:02:35;;;;;;;32.80;30.80;;;;;;;4.46;100.00;101340.28;5032801;28;20041;-74
2023/11/17 00:05:03;;;;;;;40.20;37.90;;;;;;;4.66;100.00;101346.25;5030910;28;20737;-74
2023/11/17 00:07:30;;;;;;;33.33;31.33;;;;;;;4.52;100.00;101360.75;5033362;28;20486;-75
2023/11/17 00:09:58;;;;;;;37.40;35.30;;;;;;;4.40;100.00;101350.59;5030151;28;20095;-74
2023/11/17 00:12:32;;;;;;;41.15;38.50;;;;;;;4.64;100.00;101340.28;5036144;28;20044;-74
2023/11/17 00:14:58;;;;;;;35.30;33.30;;;;;;;4.16;100.00;101336.22;5033665;28;20041;-74
2023/11/17 00:17:29;;;;;;;43.78;41.08;;;;;;;4.40;100.00;101335.63;5031229;28;20053;-74
2023/11/17 00:19:56;;;;;;;33.40;31.30;;;;;;;4.77;100.00;101335.44;5029741;28;20049;-75
2023/11/17 00:22:26;;;;;;;39.50;37.20;;;;;;;4.70;100.00;101310.72;5031241;28;20128;-74
2023/11/17 00:24:57;;;;;;;40.60;38.20;;;;;;;4.57;100.00;101315.56;5033609;28;20049;-74
2023/11/17 00:27:23;;;;;;;50.58;47.78;;;;;;;4.64;100.00;101323.69;5032877;28;20045;-74
2023/11/17 00:29:50;;;;;;;40.10;37.80;;;;;;;4.42;100.00;101319.69;5032940;28;20537;-74
2023/11/17 00:32:17;;;;;;;35.25;33.15;;;;;;;4.94;100.00;101323.25;5031086;28;20132;-74
2023/11/17 00:34:44;;;;;;;32.15;30.15;;;;;;;4.73;100.00;101322.75;5031467;28;20049;-74
2023/11/17 00:37:11;;;;;;;34.42;32.42;;;;;;;5.04;100.00;101310.78;5033278;28;20052;-74
2023/11/17 00:39:38;;;;;;;40.72;38.33;;;;;;;5.19;100.00;101292.63;5030754;28;20740;-74
2023/11/17 00:42:08;;;;;;;36.88;34.42;;;;;;;5.36;100.00;101290.91;5037024;28;20038;-74
2023/11/17 00:44:34;;;;;;;38.40;36.00;;;;;;;5.50;100.00;101295.56;5037731;28;20430;-74
2023/11/17 00:47:04;;;;;;;33.90;31.60;;;;;;;5.40;100.00;101286.13;5029712;28;20037;-74
2023/11/17 00:49:31;;;;;;;33.85;31.65;;;;;;;5.31;100.00;101287.09;5031606;28;20099;-74
2023/11/17 00:52:10;;;;;;;39.05;36.75;;;;;;;5.17;100.00;101283.22;5036368;28;20099;-75
2023/11/17 00:54:42;;;;;;;40.92;38.63;;;;;;;5.52;100.00;101282.25;5031214;28;20128;-74
2023/11/17 00:57:11;;;;;;;32.22;30.33;;;;;;;5.46;100.00;101274.97;5032698;28;20053;-74
2023/11/17 00:59:38;;;;;;;35.47;33.33;;;;;;;5.46;100.00;101283.69;5035150;28;20491;-74
2023/11/17 01:02:08;;;;;;;29.08;27.48;;;;;;;5.60;100.00;101276.16;5038410;28;20049;-74
2023/11/17 01:04:35;;;;;;;30.33;28.55;;;;;;;5.74;100.00;101275.53;5030273;28;20041;-74
2023/11/17 01:07:02;;;;;;;42.13;39.53;;;;;;;5.78;100.00;101260.22;5031546;28;20049;-74
2023/11/17 01:09:29;;;;;;;37.45;35.25;;;;;;;5.60;100.00;101242.75;5032868;28;20034;-74
2023/11/17 01:11:59;;;;;;;38.72;36.42;;;;;;;5.80;100.00;101256.44;5028289;28;20134;-74
2023/11/17 01:14:27;;;;;;;38.42;36.15;;;;;;;5.82;100.00;101248.41;5032431;28;20049;-79
2023/11/17 01:16:57;;;;;;;32.10;30.30;;;;;;;5.67;100.00;101249.00;5030334;28;20522;-79
2023/11/17 01:19:25;;;;;;;36.60;34.53;;;;;;;5.63;100.00;101239.78;5035996;28;20042;-79
2023/11/17 01:21:53;;;;;;;32.88;31.08;;;;;;;5.47;100.00;101232.63;5035251;28;20053;-80
2023/11/17 01:24:21;;;;;;;39.10;37.10;;;;;;;5.54;100.00;101222.31;5035078;28;20041;-79
2023/11/17 01:26:49;;;;;;;45.17;42.78;;;;;;;5.58;100.00;101214.91;5034289;28;20103;-80
2023/11/17 01:29:16;;;;;;;43.92;41.63;;;;;;;5.62;100.00;101214.41;5030830;28;20052;-79
2023/11/17 01:31:44;;;;;;;37.33;35.13;;;;;;;5.65;100.00;101197.44;5025540;28;20493;-79
2023/11/17 01:34:12;;;;;;;33.10;31.20;;;;;;;5.54;100.00;101198.59;5033604;28;20425;-79
2023/11/17 01:36:39;;;;;;;27.88;26.17;;;;;;;5.62;100.00;101200.41;5033451;28;20045;-79
2023/11/17 01:39:09;;;;;;;30.45;28.55;;;;;;;5.55;100.00;101207.31;5033687;28;20439;-75
2023/11/17 01:41:36;;;;;;;33.70;31.60;;;;;;;5.59;100.00;101198.91;5030423;28;20045;-74
2023/11/17 01:44:02;;;;;;;33.20;31.30;;;;;;;5.62;100.00;101190.69;5031908;28;20053;-74
2023/11/17 01:46:29;;;;;;;31.75;29.95;;;;;;;5.56;100.00;101172.06;5030915;28;20439;-75
2023/11/17 01:48:58;;;;;;;39.13;37.05;;;;;;;5.67;100.00;101171.75;5031908;28;20080;-74
2023/11/17 01:51:25;;;;;;;44.92;42.63;;;;;;;5.36;100.00;101161.81;5032042;28;20042;-74
2023/11/17 01:54:00;;;;;;;40.78;38.67;;;;;;;5.23;100.00;101159.66;5030079;28;20049;-74
2023/11/17 01:56:29;;;;;;;38.88;36.78;;;;;;;5.40;100.00;101157.88;5031212;28;20084;-75
2023/11/17 01:58:56;;;;;;;38.92;36.92;;;;;;;5.49;100.00;101156.09;5030831;28;20790;-74
2023/11/17 02:01:25;;;;;;;36.60;34.60;;;;;;;5.32;100.00;101152.56;5028213;28;20057;-74
2023/11/17 02:03:53;;;;;;;32.75;30.55;;;;;;;5.47;100.00;101152.78;5032307;28;20059;-74
2023/11/17 02:06:43;;;;;;;48.22;42.97;;;;;;;5.35;100.00;101148.78;5035947;28;20067;-74
2023/11/17 02:09:25;;;;;;;32.20;30.23;;;;;;;5.24;100.00;101156.03;5028488;28;20071;-80
2023/11/17 02:11:59;;;;;;;28.45;26.85;;;;;;;5.15;100.00;101140.38;5032345;28;20060;-80
2023/11/17 02:14:30;;;;;;;33.85;31.95;;;;;;;5.20;100.00;101125.72;5039329;28;20045;-79
2023/11/17 02:17:00;;;;;;;31.75;30.05;;;;;;;4.71;100.00;101124.72;5027752;28;20049;-79
2023/11/17 02:19:36;;;;;;;25.10;23.70;;;;;;;4.45;100.00;101124.72;5029932;28;20061;-79
2023/11/17 02:22:11;;;;;;;29.83;28.15;;;;;;;4.66;100.00;101117.31;5029362;28;20052;-80
2023/11/17 02:24:45;;;;;;;31.05;29.27;;;;;;;4.25;100.00;101121.50;5027908;28;20495;-79
2023/11/17 02:27:25;;;;;;;30.23;28.42;;;;;;;4.42;100.00;101117.16;5026726;28;20049;-80
2023/11/17 02:29:56;;;;;;;29.77;28.00;;;;;;;4.83;100.00;101102.41;5032198;28;20045;-80
2023/11/17 02:32:24;;;;;;;32.60;30.80;;;;;;;4.81;100.00;101092.03;5041176;28;20060;-79
2023/11/17 02:34:54;;;;;;;40.30;38.20;;;;;;;4.80;100.00;101090.38;5037476;28;20060;-79
2023/11/17 02:37:24;;;;;;;31.63;29.92;;;;;;;4.89;100.00;101090.41;5033110;28;20042;-79
2023/11/17 02:39:55;;;;;;;28.95;27.23;;;;;;;4.76;100.00;101082.97;5033364;28;20045;-79
2023/11/17 02:42:29;;;;;;;32.65;30.75;;;;;;;4.68;100.00;101088.19;5039651;28;20126;-79
2023/11/17 02:45:00;;;;;;;30.40;28.60;;;;;;;4.67;100.00;101090.00;5032416;28;20041;-79
2023/11/17 02:47:30;;;;;;;30.95;29.15;;;;;;;4.91;100.00;101075.28;5038910;28;20785;-77
2023/11/17 02:50:00;;;;;;;37.88;35.78;;;;;;;5.03;100.00;101064.28;5034351;28;20081;-79
2023/11/17 02:52:42;;;;;;;37.35;35.25;;;;;;;4.96;100.00;101068.56;5035931;28;20133;-74
2023/11/17 02:55:10;;;;;;;32.33;30.42;;;;;;;5.05;100.00;101062.34;5033921;28;20425;-74
2023/11/17 02:57:39;;;;;;;34.45;32.55;;;;;;;5.08;100.00;101050.63;5034129;28;20049;-75
2023/11/17 03:00:12;;;;;;;38.08;35.97;;;;;;;5.14;100.00;101047.34;5036625;28;20478;-74
2023/11/17 03:02:39;;;;;;;38.88;36.80;;;;;;;5.18;100.00;101039.97;5036822;28;20049;-75
2023/11/17 03:05:08;;;;;;;32.42;30.58;;;;;;;5.15;100.00;101040.31;5033373;28;20051;-74
2023/11/17 03:07:35;;;;;;;28.30;26.70;;;;;;;5.05;100.00;101057.06;5033077;28;20051;-74
2023/11/17 03:10:03;;;;;;;32.50;30.70;;;;;;;4.83;100.00;101062.91;5030576;28;20053;-74
2023/11/17 03:12:31;;;;;;;29.00;27.50;;;;;;;4.77;100.00;101059.13;5031991;28;20052;-74
2023/11/17 03:14:57;;;;;;;25.20;23.10;;;;;;;4.54;100.00;101052.81;5031697;28;20049;-74
2023/11/17 03:17:27;;;;;;;27.35;25.75;;;;;;;4.04;100.00;101054.34;5040872;28;20517;-79
2023/11/17 03:19:53;;;;;;;36.13;33.90;;;;;;;4.08;100.00;101052.22;5030251;28;20423;-79
2023/11/17 03:22:20;;;;;;;39.38;37.38;;;;;;;4.07;100.00;101048.75;5037270;28;20424;-79
2023/11/17 03:24:47;;;;;;;40.55;38.15;;;;;;;3.98;100.00;101033.09;5032452;28;20049;-79
2023/11/17 03:27:15;;;;;;;30.20;28.50;;;;;;;4.05;100.00;101045.44;5036564;28;20410;-79
2023/11/17 03:29:46;;;;;;;22.00;20.55;;;;;;;3.97;100.00;101036.72;5028510;28;20098;-79
2023/11/17 03:32:13;;;;;;;26.77;25.17;;;;;;;3.89;100.00;101040.94;5026281;28;20055;-74
2023/11/17 03:34:41;;;;;;;29.98;28.08;;;;;;;3.78;100.00;101049.09;5033515;28;20156;-79
2023/11/17 03:37:08;;;;;;;25.08;23.48;;;;;;;3.59;100.00;101039.56;5034049;28;20049;-79
2023/11/17 03:39:41;;;;;;;24.90;23.50;;;;;;;3.68;100.00;101041.28;5032413;28;20106;-79
2023/11/17 03:42:11;;;;;;;21.30;20.00;;;;;;;3.44;100.00;101033.19;5038085;28;20046;-79
2023/11/17 03:44:38;;;;;;;20.88;19.58;;;;;;;3.31;100.00;101038.03;5029956;28;20048;-79
2023/11/17 03:47:06;;;;;;;19.35;18.15;;;;;;;3.40;100.00;101021.34;5032242;28;20575;-79
2023/11/17 03:49:34;;;;;;;22.02;20.63;;;;;;;3.23;100.00;101023.00;5035995;28;20486;-79
2023/11/17 03:52:04;;;;;;;23.65;22.13;;;;;;;3.28;100.00;101018.13;5034860;28;20041;-79
2023/11/17 03:54:32;;;;;;;20.98;19.63;;;;;;;2.64;100.00;101014.72;5039041;28;20541;-79
2023/11/17 03:57:00;;;;;;;20.00;18.70;;;;;;;2.50;100.00;101020.44;5029817;28;20080;-79
2023/11/17 03:59:30;;;;;;;19.58;18.48;;;;;;;2.63;100.00;101010.47;5029217;28;20041;-80
2023/11/17 04:02:04;;;;;;;19.33;18.13;;;;;;;2.98;100.00;101017.53;5030651;28;20053;-79
2023/11/17 04:04:32;;;;;;;20.52;19.25;;;;;;;2.30;100.00;101009.25;5037307;28;20045;-79
2023/11/17 04:06:59;;;;;;;19.70;18.50;;;;;;;2.97;100.00;101008.00;5033022;28;20160;-79
2023/11/17 04:09:27;;;;;;;18.55;17.45;;;;;;;2.82;100.00;101006.88;5035875;28;20422;-79
2023/11/17 04:11:58;;;;;;;19.25;18.05;;;;;;;2.97;100.00;101002.78;5035892;28;20044;-79
2023/11/17 04:14:25;;;;;;;21.75;20.35;;;;;;;2.62;100.00;100995.66;5032837;28;20107;-79
2023/11/17 04:16:57;;;;;;;22.30;20.85;;;;;;;2.52;100.00;100982.63;5033671;28;20530;-79
2023/11/17 04:19:25;;;;;;;20.92;19.48;;;;;;;2.76;100.00;100991.72;5032089;28;20049;-79
2023/11/17 04:21:52;;;;;;;22.15;20.25;;;;;;;3.21;100.00;100981.16;5036089;28;20049;-79
2023/11/17 04:24:19;;;;;;;20.70;19.40;;;;;;;3.19;100.00;100983.13;5036511;28;20450;-79
2023/11/17 04:26:48;;;;;;;20.75;19.52;;;;;;;3.03;100.00;100987.41;5035215;28;20160;-79
2023/11/17 04:29:15;;;;;;;21.13;19.83;;;;;;;3.03;100.00;100976.91;5037244;28;20563;-78
2023/11/17 04:31:43;;;;;;;20.45;19.17;;;;;;;3.18;100.00;100978.03;5031406;28;20430;-79
2023/11/17 04:34:11;;;;;;;20.13;18.92;;;;;;;2.79;100.00;100974.88;5030710;28;20057;-79
2023/11/17 04:36:38;;;;;;;21.20;19.90;;;;;;;2.65;100.00;100974.41;5039202;28;20519;-79
2023/11/17 04:39:11;;;;;;;22.55;21.15;;;;;;;2.85;100.00;100979.53;5033333;28;20054;-79
2023/11/17 04:41:38;;;;;;;20.15;18.95;;;;;;;2.77;100.00;100985.50;5030704;28;20793;-79
2023/11/17 04:44:07;;;;;;;25.42;23.95;;;;;;;2.96;100.00;100982.72;5032371;28;20048;-79
2023/11/17 04:46:41;;;;;;;21.80;20.40;;;;;;;3.12;100.00;100982.06;5028493;28;20100;-79
2023/11/17 04:49:08;;;;;;;21.48;20.17;;;;;;;2.88;100.00;100980.06;5029144;28;20060;-79
2023/11/17 04:51:35;;;;;;;21.33;20.02;;;;;;;3.08;100.00;100985.13;5032053;28;20049;-79
2023/11/17 04:54:02;;;;;;;25.75;24.13;;;;;;;3.12;100.00;100965.50;5031792;28;20049;-79
2023/11/17 04:56:30;;;;;;;21.58;20.27;;;;;;;2.64;100.00;100979.81;5032348;28;20049;-78
2023/11/17 04:58:58;;;;;;;22.52;21.13;;;;;;;3.12;100.00;100970.75;5026846;28;20042;-79
2023/11/17 05:01:26;;;;;;;21.83;20.42;;;;;;;2.98;100.00;100975.53;5032843;28;20041;-74
2023/11/17 05:03:55;;;;;;;20.60;19.30;;;;;;;2.87;100.00;100964.44;5028610;28;20051;-74
2023/11/17 05:06:23;;;;;;;21.98;19.77;;;;;;;2.45;100.00;100971.09;5035101;28;20054;-74
2023/11/17 05:08:50;;;;;;;20.90;19.63;;;;;;;2.67;100.00;100966.41;5027712;28;20144;-74
2023/11/17 05:11:18;;;;;;;21.20;20.00;;;;;;;2.82;100.00;100961.47;5029113;28;20045;-73
2023/11/17 05:13:44;;;;;;;19.00;17.90;;;;;;;2.80;100.00;100969.47;5033629;28;20587;-74
2023/11/17 05:16:14;;;;;;;19.42;18.23;;;;;;;2.80;100.00;100952.91;5028886;28;20060;-74
2023/11/17 05:18:47;;;;;;;21.23;20.02;;;;;;;2.64;100.00;100948.34;5031299;28;20064;-74
2023/11/17 05:21:15;;;;;;;19.83;18.52;;;;;;;2.63;100.00;100944.88;5032056;28;20045;-79
2023/11/17 05:23:42;;;;;;;21.70;19.23;;;;;;;2.02;100.00;100948.91;5029901;28;20054;-78
2023/11/17 05:26:10;;;;;;;19.75;18.52;;;;;;;2.24;100.00;100952.97;5030561;28;20435;-79
2023/11/17 05:28:39;;;;;;;20.38;19.08;;;;;;;2.67;100.00;100958.53;5032888;28;20465;-79
2023/11/17 05:31:07;;;;;;;21.65;20.25;;;;;;;2.33;100.00;100959.16;5023806;28;20132;-79
2023/11/17 05:33:34;;;;;;;16.90;15.90;;;;;;;2.73;100.00;100960.56;5031177;28;20050;-79
2023/11/17 05:36:02;;;;;;;18.20;16.67;;;;;;;2.71;100.00;100942.31;5030862;28;20063;-79
2023/11/17 05:38:29;;;;;;;18.00;16.90;;;;;;;2.95;100.00;100931.25;5029359;28;20548;-79
2023/11/17 05:40:56;;;;;;;19.83;18.63;;;;;;;2.94;100.00;100931.41;5031066;28;20046;-74
2023/11/17 05:43:23;;;;;;;21.60;20.30;;;;;;;2.85;100.00;100940.19;5030727;28;20570;-74
2023/11/17 05:45:50;;;;;;;20.80;19.50;;;;;;;2.81;100.00;100931.75;5030375;28;20045;-74
2023/11/17 05:48:17;;;;;;;20.13;18.92;;;;;;;2.90;100.00;100935.28;5037622;28;20048;-74
2023/11/17 05:50:50;;;;;;;20.85;19.55;;;;;;;3.08;100.00;100932.66;5033539;28;20041;-74
2023/11/17 05:53:18;;;;;;;18.30;17.30;;;;;;;2.68;100.00;100926.06;5028026;28;20128;-74
2023/11/17 05:55:45;;;;;;;18.65;17.55;;;;;;;2.93;100.00;100925.31;5031793;28;20136;-79
2023/11/17 05:58:12;;;;;;;20.33;19.13;;;;;;;2.90;100.00;100914.28;5028109;28;20446;-79
2023/11/17 06:00:39;;;;;;;19.73;18.52;;;;;;;2.89;100.00;100921.34;5030181;28;20049;-75
2023/11/17 06:03:06;;;;;;;20.27;19.08;;;;;;;2.96;100.00;100900.56;5027621;28;20045;-74
2023/11/17 06:05:33;;;;;;;19.40;18.20;;;;;;;3.12;100.00;100902.53;5033983;28;20056;-79
2023/11/17 06:08:02;;;;;;;19.80;18.60;;;;;;;3.04;100.00;100907.69;5033740;28;20075;-74
2023/11/17 06:10:30;;;;;;;18.48;17.38;;;;;;;3.15;100.00;100897.78;5030619;28;20635;-79
2023/11/17 06:12:57;;;;;;;20.10;18.90;;;;;;;3.22;100.00;100892.72;5033735;28;20060;-74
2023/11/17 06:15:27;;;;;;;20.27;19.08;;;;;;;3.38;100.00;100900.72;5033976;28;20041;-74
2023/11/17 06:17:57;;;;;;;22.10;20.40;;;;;;;3.49;100.00;100878.63;5030622;28;20045;-74
2023/11/17 06:20:25;;;;;;;20.30;19.10;;;;;;;3.71;100.00;100884.31;5032679;28;20050;-74
2023/11/17 06:22:52;;;;;;;22.50;20.92;;;;;;;3.77;100.00;100878.44;5029993;28;20080;-79
2023/11/17 06:25:19;;;;;;;21.25;19.95;;;;;;;3.15;100.00;100876.78;5030978;28;20045;-74
2023/11/17 06:27:49;;;;;;;21.15;19.85;;;;;;;3.94;100.00;100880.16;5031576;28;20115;-78
2023/11/17 06:30:16;;;;;;;23.60;22.00;;;;;;;4.39;100.00;100886.03;5033731;28;20056;-74
2023/11/17 06:32:43;;;;;;;23.30;21.75;;;;;;;4.09;100.00;100873.31;5027419;28;20045;-74
2023/11/17 06:35:11;;;;;;;23.30;21.90;;;;;;;4.17;100.00;100880.38;5031812;28;20077;-74
2023/11/17 06:37:38;;;;;;;23.73;22.23;;;;;;;5.05;100.00;100867.50;5032762;28;20080;-74
2023/11/17 06:40:09;;;;;;;27.23;25.52;;;;;;;5.68;100.00;100857.97;4906864;28;20439;-74
2023/11/17 06:42:36;;;;;;;27.48;25.67;;;;;;;5.89;100.00;100851.28;4987928;28;20093;-79
2023/11/17 06:45:05;;;;;;;26.83;25.15;;;;;;;6.31;100.00;100845.66;4991764;28;20060;-74
2023/11/17 06:47:33;;;;;;;26.13;24.42;;;;;;;6.70;100.00;100830.72;4992813;28;20038;-74
2023/11/17 06:50:00;;;;;;;32.20;29.23;;;;;;;6.79;100.00;100827.81;4993340;28;20054;-74
2023/11/17 06:52:27;;;;;;;29.27;27.38;;;;;;;6.51;100.00;100827.56;4992898;28;20046;-74
2023/11/17 06:54:54;;;;;;;28.00;26.30;;;;;;;6.46;100.00;100823.81;4993604;28;20050;-74
2023/11/17 06:57:21;;;;;;;27.60;25.15;;;;;;;7.19;100.00;100820.50;4991805;28;20078;-74
2023/11/17 06:59:48;;;;;;;26.92;24.92;;;;;;;7.11;100.00;100817.97;4990572;28;20054;-74
2023/11/17 07:02:18;;;;;;;27.77;25.98;;;;;;;7.04;100.00;100817.03;4992343;28;20443;-74
2023/11/17 07:04:48;;;;;;;26.63;24.92;;;;;;;7.04;100.00;100815.19;4993811;28;20918;-74
2023/11/17 07:07:15;;;;;;;25.05;23.35;;;;;;;7.21;100.00;100802.66;4993999;28;20057;-74
2023/11/17 07:09:42;;;;;;;25.38;23.08;;;;;;;7.15;100.00;100784.09;4991654;28;20100;-74
2023/11/17 07:12:10;;;;;;;36.55;33.53;;;;;;;7.16;100.00;100791.81;4991700;28;20049;-74
2023/11/17 07:14:38;;;;;;;38.58;34.20;;;;;;;7.21;100.00;100791.28;4990014;28;20050;-75
2023/11/17 07:17:06;;;;;;;25.20;23.08;;;;;;;6.74;100.00;100800.31;4990084;28;20534;-75
2023/11/17 07:19:34;;;;;;;26.60;24.70;;;;;;;6.71;100.00;100805.94;4991479;28;20042;-74
2023/11/17 07:22:02;;;;;;;31.73;29.08;;;;;;;6.80;100.00;100813.59;4995493;28;20046;-74
2023/11/17 07:24:30;;;;;;;28.70;26.67;;;;;;;7.25;100.00;100811.84;4991844;28;20050;-74
2023/11/17 07:26:58;;;;;;;30.35;28.05;;;;;;;7.68;100.00;100813.84;4996625;28;20101;-74
2023/11/17 07:29:25;;;;;;;27.35;25.45;;;;;;;7.81;100.00;100816.66;4990644;28;20046;-74
2023/11/17 07:31:52;;;;;;;25.48;23.77;;;;;;;7.48;100.00;100818.88;4991002;28;20052;-74
2023/11/17 07:34:20;;;;;;;28.13;26.15;;;;;;;7.36;100.00;100815.06;4992267;28;20057;-75
2023/11/17 07:36:49;;;;;;;24.35;22.85;;;;;;;7.65;100.00;100825.59;4993638;28;20384;-74
2023/11/17 07:39:18;;;;;;;23.60;22.10;;;;;;;8.31;100.00;100808.84;4992545;28;20054;-75
2023/11/17 07:41:46;;;;;;;23.02;21.52;;;;;;;8.35;100.00;100796.88;4992933;28;20050;-74
2023/11/17 07:44:13;;;;;;;29.33;26.65;;;;;;;8.31;100.00;100800.91;4996041;28;20046;-74
2023/11/17 07:46:40;;;;;;;35.38;32.53;;;;;;;8.07;100.00;100807.38;4997296;28;20073;-74
2023/11/17 07:49:10;;;;;;;29.63;27.65;;;;;;;8.20;100.00;100803.06;4994878;28;20049;-75
2023/11/17 07:51:37;;;;;;;28.90;26.88;;;;;;;8.37;100.00;100797.50;4994900;28;20091;-74
2023/11/17 07:54:06;;;;;;;24.50;23.02;;;;;;;8.56;100.00;100782.84;4993408;28;20042;-74
2023/11/17 07:56:33;;;;;;;28.90;26.88;;;;;;;8.35;100.00;100767.75;4993159;28;20124;-74
2023/11/17 07:59:00;;;;;;;24.30;22.65;;;;;;;8.46;100.00;100769.94;4991408;28;20054;-74
2023/11/17 08:01:27;;;;;;;23.15;21.65;;;;;;;8.54;100.00;100783.03;4999485;28;20046;-75
2023/11/17 08:03:55;;;;;;;24.45;22.35;;;;;;;8.62;100.00;100793.50;4991328;28;20054;-74
2023/11/17 08:06:22;;;;;;;22.15;20.65;;;;;;;8.43;100.00;100787.00;4990629;28;20429;-74
2023/11/17 08:08:49;;;;;;;23.50;21.90;;;;;;;8.98;100.00;100775.81;4999075;28;20053;-74
2023/11/17 08:11:17;;;;;;;24.75;23.23;;;;;;;9.57;100.00;100770.84;4993595;28;20049;-74
2023/11/17 08:13:44;;;;;;;24.85;23.45;;;;;;;9.88;100.00;100766.88;4992496;28;20522;-74
2023/11/17 08:16:11;;;;;;;24.00;22.35;;;;;;;9.55;100.00;100770.22;4994336;28;20046;-80
2023/11/17 08:18:38;;;;;;;23.45;21.85;;;;;;;9.86;100.00;100769.75;4992568;28;20096;-79
2023/11/17 08:21:06;;;;;;;23.67;22.08;;;;;;;10.23;100.00;100775.53;4990105;28;20128;-80
2023/11/17 08:23:33;;;;;;;27.33;25.52;;;;;;;10.20;100.00;100769.81;4993266;28;20051;-79
2023/11/17 08:26:01;;;;;;;22.02;20.73;;;;;;;10.17;100.00;100763.06;4998305;28;20069;-80
2023/11/17 08:28:29;;;;;;;23.20;21.80;;;;;;;10.35;100.00;100762.50;4992070;28;20050;-80
2023/11/17 08:30:57;;;;;;;22.70;21.30;;;;;;;10.05;100.00;100756.72;4991886;28;20050;-79
2023/11/17 08:33:24;;;;;;;22.95;21.45;;;;;;;10.25;100.00;100749.59;4988549;28;20108;-80
2023/11/17 08:35:52;;;;;;;24.15;22.65;;;;;;;10.49;100.00;100732.25;4992525;28;20516;-80
2023/11/17 08:38:20;;;;;;;24.52;23.02;;;;;;;10.39;100.00;100731.88;4989015;28;20046;-80
2023/11/17 08:40:47;;;;;;;44.95;30.58;;;;;;;10.36;100.00;100723.50;4995646;28;20066;-79
2023/11/17 08:43:21;;;;;;;25.17;23.67;;;;;;;10.45;100.00;100722.28;4993193;28;20511;-74
2023/11/17 08:45:52;;;;;;;24.15;22.65;;;;;;;10.38;100.00;100716.13;4988697;28;20520;-74
2023/11/17 08:48:19;;;;;;;23.95;22.45;;;;;;;10.26;100.00;100711.44;4990459;28;20054;-74
2023/11/17 08:50:46;;;;;;;27.67;26.05;;;;;;;10.05;100.00;100715.06;4993420;28;20062;-74
2023/11/17 08:53:13;;;;;;;23.80;22.30;;;;;;;10.46;100.00;100715.94;4991179;28;20046;-74
2023/11/17 08:55:41;;;;;;;24.27;22.70;;;;;;;10.13;100.00;100713.22;4991543;28;20057;-74
2023/11/17 08:58:10;;;;;;;24.90;23.30;;;;;;;10.30;100.00;100717.97;4991589;28;20483;-74
2023/11/17 09:00:36;;;;;;;26.73;25.00;;;;;;;10.45;100.00;100720.44;4992655;28;20074;-74
2023/11/17 09:03:09;;;;;;;26.95;25.15;;;;;;;10.60;100.00;100720.22;4998404;28;20049;-74
2023/11/17 09:05:41;;;;;;;25.10;23.50;;;;;;;10.63;100.00;100729.63;4989427;28;20050;-74
2023/11/17 09:08:08;;;;;;;24.38;22.77;;;;;;;11.03;100.00;100721.56;4987644;28;20061;-74
2023/11/17 09:10:37;;;;;;;25.52;23.92;;;;;;;11.51;100.00;100713.22;4968271;28;20056;-74
2023/11/17 09:13:09;;;;;;;27.70;26.08;;;;;;;11.55;100.00;100696.63;5018792;28;20041;-74
2023/11/17 09:15:38;;;;;;;26.60;25.00;;;;;;;11.48;100.00;100677.22;5012938;28;20152;-74
2023/11/17 09:18:07;;;;;;;24.58;23.13;;;;;;;11.49;100.00;100668.22;5010034;28;20042;-79
2023/11/17 09:20:37;;;;;;;22.92;21.52;;;;;;;11.66;100.00;100656.03;5008699;28;20551;-80
2023/11/17 09:23:04;;;;;;;22.35;20.95;;;;;;;11.62;100.00;100646.88;5009604;28;20139;-79
2023/11/17 09:25:31;;;;;;;22.90;21.50;;;;;;;11.76;100.00;100644.09;5011454;28;20492;-79
2023/11/17 09:27:58;;;;;;;24.25;22.75;;;;;;;11.91;100.00;100644.66;5008151;28;20061;-80
2023/11/17 09:30:28;;;;;;;26.20;24.50;;;;;;;12.32;100.00;100643.28;5010590;28;20050;-80
2023/11/17 09:32:58;;;;;;;24.90;23.30;;;;;;;12.55;100.00;100643.47;5007814;28;20042;-79
2023/11/17 09:35:27;;;;;;;24.38;22.77;;;;;;;12.86;100.00;100647.06;5009492;28;20046;-74
2023/11/17 09:37:56;;;;;;;25.23;23.67;;;;;;;13.15;100.00;100640.13;5010228;28;20049;-79
2023/11/17 09:40:25;;;;;;;25.15;23.65;;;;;;;12.74;100.00;100624.84;5006673;28;20053;-79
2023/11/17 09:42:53;;;;;;;23.23;21.83;;;;;;;12.89;100.00;100621.78;5008959;28;20116;-79
2023/11/17 09:45:21;;;;;;;23.50;22.10;;;;;;;12.75;100.00;100624.59;5016785;28;20045;-79
2023/11/17 09:47:52;;;;;;;23.25;21.75;;;;;;;13.73;100.00;100626.19;5012608;28;20082;-80
2023/11/17 09:50:20;;;;;;;24.70;23.10;;;;;;;14.44;100.00;100624.41;5008759;28;20100;-80
2023/11/17 09:52:49;;;;;;;26.38;24.42;;;;;;;15.06;100.00;100625.72;5007852;28;20073;-80
2023/11/17 09:55:20;;;;;;;24.30;22.67;;;;;;;15.79;100.00;100624.94;5008428;28;20430;-80
2023/11/17 09:57:49;;;;;;;30.40;28.30;;;;;;;15.90;100.00;100612.53;5008902;28;20435;-80
2023/11/17 10:00:21;;;;;;;30.73;28.73;;;;;;;17.41;100.00;100610.47;5012890;28;20063;-80
2023/11/17 10:02:56;;;;;;;23.85;22.25;;;;;;;17.23;100.00;100605.47;5014496;28;20112;-81
2023/11/17 10:05:24;;;;;;;22.67;21.08;;;;;;;16.13;100.00;100600.03;5012199;28;20049;-80
2023/11/17 10:07:55;;;;;;;24.80;23.15;;;;;;;15.55;100.00;100592.13;5010823;28;20049;-80
2023/11/17 10:10:26;;;;;;;26.00;24.30;;;;;;;14.61;100.00;100588.97;5009473;28;20041;-80
2023/11/17 10:12:56;;;;;;;26.67;25.08;;;;;;;13.93;100.00;100580.50;5008987;28;20046;-80
2023/11/17 10:15:28;;;;;;;26.70;24.73;;;;;;;14.14;100.00;100572.97;5009574;28;20050;-80
2023/11/17 10:17:56;;;;;;;;;;;;;;;14.23;100.00;100578.78;5007529;28;20133;-80
2023/11/17 10:20:26;;;;;;;25.77;24.05;;;;;;;13.70;100.00;100583.16;5007389;28;19922;-80
2023/11/17 10:22:54;;;;;;;26.90;25.20;;;;;;;13.56;100.00;100585.22;5009205;28;20049;-80
2023/11/17 10:25:23;;;;;;;25.77;24.08;;;;;;;13.41;100.00;100585.66;5011380;28;20057;-74
2023/11/17 10:27:51;;;;;;;23.00;21.48;;;;;;;13.37;100.00;100579.13;5010667;28;20057;-74
2023/11/17 10:30:26;;;;;;;23.63;22.13;;;;;;;12.98;100.00;100577.78;5013153;28;20053;-74
2023/11/17 10:33:07;;;;;;;26.58;24.88;;;;;;;13.11;100.00;100582.16;5006875;28;20088;-75
2023/11/17 10:35:35;;;;;;;24.70;23.10;;;;;;;12.97;100.00;100576.97;5012485;28;20099;-75
2023/11/17 10:38:05;;;;;;;28.35;26.45;;;;;;;12.93;100.00;100570.47;5015904;28;20053;-74
2023/11/17 10:40:34;;;;;;;25.77;24.17;;;;;;;13.14;100.00;100571.03;5013821;28;20054;-75
2023/11/17 10:43:02;;;;;;;24.13;22.63;;;;;;;13.10;100.00;100561.84;5012921;28;20058;-74
2023/11/17 10:45:28;;;;;;;24.42;22.92;;;;;;;12.98;100.00;100557.28;5013006;28;20108;-75
2023/11/17 10:47:55;;;;;;;23.70;22.20;;;;;;;13.02;100.00;100550.47;5016188;28;20053;-74
2023/11/17 10:50:22;;;;;;;21.02;19.63;;;;;;;12.79;100.00;100545.00;5014353;28;20081;-75
2023/11/17 10:52:49;;;;;;;21.30;19.90;;;;;;;12.68;100.00;100537.78;5013921;28;20041;-74
2023/11/17 10:55:16;;;;;;;21.67;20.17;;;;;;;12.79;100.00;100545.81;5018317;28;20041;-75
2023/11/17 10:58:04;;;;;;;22.80;21.30;;;;;;;12.54;100.00;100537.94;5017096;28;20054;-75
2023/11/17 11:00:33;;;;;;;24.83;23.33;;;;;;;12.69;100.00;100540.22;5016818;28;20038;-74
2023/11/17 11:03:00;;;;;;;26.52;25.02;;;;;;;12.25;100.00;100538.69;5023388;28;20530;-74
2023/11/17 11:05:28;;;;;;;23.58;22.17;;;;;;;12.17;100.00;100545.13;5014362;28;20467;-80
2023/11/17 11:07:57;;;;;;;25.08;23.05;;;;;;;12.52;100.00;100542.66;5012544;28;20049;-74
2023/11/17 11:10:27;;;;;;;22.20;20.90;;;;;;;12.40;100.00;100541.78;5015113;28;20046;-75
2023/11/17 11:13:01;;;;;;;22.45;21.15;;;;;;;12.46;100.00;100542.75;5009370;28;20057;-74